createdAt,value
2022-08-23T00:00:13.323Z,3.30
2022-08-23T00:02:48.171Z,3.50
2022-08-23T00:05:15.692Z,4.20
2022-08-23T00:07:44.208Z,3.63
2022-08-23T00:10:22.156Z,3.97
2022-08-23T00:12:49.680Z,3.90
2022-08-23T00:15:20.269Z,3.15
2022-08-23T00:17:55.183Z,3.88
2022-08-23T00:20:22.769Z,3.88
2022-08-23T00:22:50.262Z,3.78
2022-08-23T00:25:25.157Z,3.75
2022-08-23T00:27:52.675Z,3.65
2022-08-23T00:30:20.275Z,3.58
2022-08-23T00:32:55.632Z,3.60
2022-08-23T00:35:27.533Z,3.65
2022-08-23T00:38:32.886Z,3.38
2022-08-23T00:40:53.402Z,3.35
2022-08-23T00:44:10.153Z,4.03
2022-08-23T00:47:23.638Z,3.47
2022-08-23T00:50:19.151Z,3.38
2022-08-23T00:52:54.455Z,3.45
2022-08-23T00:55:29.179Z,3.50
2022-08-23T00:57:58.084Z,3.80
2022-08-23T01:00:27.763Z,3.50
2022-08-23T01:03:04.155Z,3.13
2022-08-23T01:05:49.024Z,2.95
2022-08-23T01:08:23.165Z,3.53
2022-08-23T01:11:34.106Z,3.40
2022-08-23T01:14:22.183Z,3.20
2022-08-23T01:17:10.048Z,3.38
2022-08-23T01:19:57.181Z,2.90
2022-08-23T01:22:46.136Z,2.80
2022-08-23T01:25:25.168Z,2.80
2022-08-23T01:27:53.032Z,3.00
2022-08-23T01:30:23.850Z,3.10
2022-08-23T01:33:04.168Z,3.25
2022-08-23T01:35:43.989Z,3.05
2022-08-23T01:38:19.213Z,3.47
2022-08-23T01:40:47.154Z,3.25
2022-08-23T01:43:15.453Z,3.35
2022-08-23T01:45:50.280Z,3.58
2022-08-23T01:48:18.851Z,3.50
2022-08-23T01:50:46.783Z,3.42
2022-08-23T01:53:21.165Z,3.45
2022-08-23T01:55:48.976Z,3.15
2022-08-23T01:58:16.659Z,3.75
2022-08-23T02:00:51.164Z,3.63
2022-08-23T02:03:18.729Z,3.25
2022-08-23T02:05:46.791Z,3.47
2022-08-23T02:08:40.166Z,3.53
2022-08-23T02:11:15.187Z,3.38
2022-08-23T02:13:51.179Z,3.58
2022-08-23T02:16:29.085Z,3.30
2022-08-23T02:19:04.181Z,3.47
2022-08-23T02:21:32.112Z,3.30
2022-08-23T02:24:13.197Z,3.40
2022-08-23T02:26:46.304Z,3.38
2022-08-23T02:29:22.215Z,3.28
2022-08-23T02:31:51.337Z,3.47
2022-08-23T02:34:19.356Z,3.38
2022-08-23T02:36:55.206Z,3.35
2022-08-23T02:39:22.928Z,3.33
2022-08-23T02:41:51.976Z,3.42
2022-08-23T02:44:26.196Z,3.13
2022-08-23T02:47:01.337Z,3.10
2022-08-23T02:49:36.272Z,3.67
2022-08-23T02:52:06.378Z,3.22
2022-08-23T02:54:35.556Z,2.80
2022-08-23T02:57:10.205Z,3.00
2022-08-23T02:59:38.594Z,3.33
2022-08-23T03:02:06.025Z,3.53
2022-08-23T03:04:40.229Z,3.40
2022-08-23T03:07:07.679Z,3.17
2022-08-23T03:09:35.342Z,3.35
2022-08-23T03:12:09.220Z,2.92
2022-08-23T03:14:38.043Z,3.00
2022-08-23T03:17:07.821Z,3.05
2022-08-23T03:19:43.289Z,2.58
2022-08-23T03:22:10.881Z,2.80
2022-08-23T03:24:41.389Z,3.42
2022-08-23T03:27:17.241Z,2.88
2022-08-23T03:29:45.030Z,2.78
2022-08-23T03:32:12.470Z,2.75
2022-08-23T03:35:03.229Z,2.60
2022-08-23T03:37:34.446Z,2.55
2022-08-23T03:40:02.090Z,2.72
2022-08-23T03:42:36.216Z,2.78
2022-08-23T03:45:24.264Z,2.58
2022-08-23T03:47:58.235Z,2.50
2022-08-23T03:50:26.031Z,2.55
2022-08-23T03:52:53.565Z,2.42
2022-08-23T03:55:27.201Z,2.78
2022-08-23T03:57:54.780Z,2.70
2022-08-23T04:00:22.409Z,2.03
2022-08-23T04:02:56.219Z,2.72
2022-08-23T04:05:23.744Z,2.50
2022-08-23T04:07:51.337Z,2.75
2022-08-23T04:10:26.206Z,2.65
2022-08-23T04:12:55.047Z,2.70
2022-08-23T04:15:22.767Z,2.35
2022-08-23T04:17:57.311Z,2.33
2022-08-23T04:20:25.160Z,2.75
2022-08-23T04:22:54.589Z,2.13
2022-08-23T04:25:34.549Z,2.47
2022-08-23T04:28:03.976Z,2.60
2022-08-23T04:30:39.341Z,2.35
2022-08-23T04:33:10.846Z,2.40
2022-08-23T04:35:48.230Z,2.50
2022-08-23T04:38:18.391Z,2.22
2022-08-23T04:41:18.208Z,2.08
2022-08-23T04:43:46.029Z,2.25
2022-08-23T04:46:27.251Z,2.75
2022-08-23T04:48:55.120Z,2.10
2022-08-23T04:51:22.743Z,2.50
2022-08-23T04:53:57.227Z,2.45
2022-08-23T04:56:24.673Z,2.75
2022-08-23T04:58:52.176Z,2.30
2022-08-23T05:01:26.388Z,2.28
2022-08-23T05:03:55.402Z,2.42
2022-08-23T05:06:23.676Z,2.33
2022-08-23T05:08:57.657Z,2.53
2022-08-23T05:11:25.388Z,2.42
2022-08-23T05:13:53.028Z,2.38
2022-08-23T05:16:27.444Z,2.53
2022-08-23T05:18:55.110Z,2.28
2022-08-23T05:21:24.591Z,2.15
2022-08-23T05:23:59.292Z,2.38
2022-08-23T05:26:27.223Z,2.35
2022-08-23T05:28:54.895Z,2.15
2022-08-23T05:31:31.250Z,2.92
2022-08-23T05:33:59.237Z,2.70
2022-08-23T05:36:26.723Z,2.28
2022-08-23T05:39:01.254Z,2.30
2022-08-23T05:41:37.789Z,2.13
2022-08-23T05:44:12.405Z,2.10
2022-08-23T05:46:48.369Z,2.25
2022-08-23T05:49:23.227Z,2.20
2022-08-23T05:51:51.484Z,2.42
2022-08-23T05:54:19.473Z,2.17
2022-08-23T05:56:53.404Z,2.25
2022-08-23T05:59:21.035Z,2.20
2022-08-23T06:01:50.226Z,2.00
2022-08-23T06:04:26.296Z,2.40
2022-08-23T06:06:56.348Z,2.22
2022-08-23T06:09:23.853Z,2.58
2022-08-23T06:11:58.304Z,2.22
2022-08-23T06:14:25.962Z,2.50
2022-08-23T06:16:56.060Z,2.00
2022-08-23T06:19:31.260Z,2.13
2022-08-23T06:21:58.837Z,2.72
2022-08-23T06:24:26.992Z,2.47
2022-08-23T06:27:01.308Z,2.30
2022-08-23T06:29:29.150Z,2.10
2022-08-23T06:31:56.676Z,2.03
2022-08-23T06:34:33.256Z,2.40
2022-08-23T06:37:06.741Z,2.50
2022-08-23T06:39:41.309Z,2.22
2022-08-23T06:42:36.434Z,2.05
2022-08-23T06:45:05.449Z,2.35
2022-08-23T06:47:40.580Z,2.10
2022-08-23T06:50:16.338Z,2.75
2022-08-23T06:52:46.445Z,2.53
2022-08-23T06:55:14.136Z,2.53
2022-08-23T06:57:48.601Z,2.50
2022-08-23T07:00:21.482Z,2.17
2022-08-23T07:02:56.613Z,2.40
2022-08-23T07:05:24.299Z,2.40
2022-08-23T07:07:51.748Z,2.00
2022-08-23T07:10:26.306Z,2.30
2022-08-23T07:12:53.881Z,2.40
2022-08-23T07:15:21.436Z,2.40
2022-08-23T07:17:55.329Z,2.22
2022-08-23T07:20:22.804Z,2.30
2022-08-23T07:22:50.271Z,2.65
2022-08-23T07:25:24.291Z,2.50
2022-08-23T07:27:51.805Z,2.20
2022-08-23T07:30:19.358Z,2.20
2022-08-23T07:32:53.280Z,2.47
2022-08-23T07:35:21.505Z,2.45
2022-08-23T07:37:49.286Z,2.38
2022-08-23T07:40:27.792Z,2.70
2022-08-23T07:42:58.770Z,2.83
2022-08-23T07:45:40.313Z,2.60
2022-08-23T07:48:23.530Z,2.30
2022-08-23T07:51:11.638Z,2.30
2022-08-23T07:53:42.990Z,2.22
2022-08-23T07:56:21.313Z,2.70
2022-08-23T07:58:50.114Z,2.50
2022-08-23T08:01:35.737Z,2.42
2022-08-23T08:04:05.846Z,3.08
2022-08-23T08:06:59.816Z,2.80
2022-08-23T08:09:32.660Z,2.60
2022-08-23T08:12:06.338Z,2.92
2022-08-23T08:14:36.202Z,2.75
2022-08-23T08:17:04.872Z,2.92
2022-08-23T08:19:39.415Z,2.67
2022-08-23T08:22:07.068Z,3.08
2022-08-23T08:24:34.899Z,2.80
2022-08-23T08:27:09.368Z,2.90
2022-08-23T08:29:37.118Z,2.63
2022-08-23T08:32:05.235Z,2.83
2022-08-23T08:34:39.353Z,2.50
2022-08-23T08:37:07.677Z,2.60
2022-08-23T08:39:37.099Z,2.60
2022-08-23T08:42:11.507Z,2.65
2022-08-23T08:44:46.285Z,3.08
2022-08-23T08:47:36.342Z,2.88
2022-08-23T08:50:06.719Z,2.33
2022-08-23T08:52:58.337Z,2.55
2022-08-23T08:55:36.805Z,2.63
2022-08-23T08:58:14.307Z,2.38
2022-08-23T09:00:42.187Z,2.72
2022-08-23T09:03:21.437Z,2.80
2022-08-23T09:06:18.239Z,2.60
2022-08-23T09:09:11.341Z,2.63
2022-08-23T09:12:13.024Z,2.47
2022-08-23T09:15:09.405Z,3.08
2022-08-23T09:18:07.365Z,2.80
2022-08-23T09:20:42.371Z,2.33
2022-08-23T09:23:42.683Z,2.50
2022-08-23T09:26:43.677Z,2.92
2022-08-23T09:29:28.297Z,2.55
2022-08-23T09:32:08.438Z,2.90
2022-08-23T09:34:44.371Z,2.60
2022-08-23T09:37:26.327Z,2.58
2022-08-23T09:40:16.421Z,2.50
2022-08-23T09:42:51.335Z,2.58
2022-08-23T09:45:47.361Z,2.53
2022-08-23T09:48:39.357Z,2.50
2022-08-23T09:51:26.844Z,2.63
2022-08-23T09:54:27.432Z,2.42
2022-08-23T09:57:02.677Z,2.50
2022-08-23T09:59:45.432Z,2.20
2022-08-23T10:02:21.263Z,2.60
2022-08-23T10:05:18.464Z,2.10
2022-08-23T10:07:56.296Z,2.75
2022-08-23T10:10:44.386Z,2.35
2022-08-23T10:13:16.223Z,2.38
2022-08-23T10:16:13.415Z,2.30
2022-08-23T10:18:51.252Z,2.00
2022-08-23T10:21:31.359Z,2.72
2022-08-23T10:24:12.076Z,2.10
2022-08-23T10:27:04.389Z,2.13
2022-08-23T10:29:39.271Z,2.20
2022-08-23T10:32:47.337Z,2.20
2022-08-23T10:35:43.222Z,2.28
2022-08-23T10:38:47.423Z,2.47
2022-08-23T10:41:43.542Z,2.13
2022-08-23T10:44:50.394Z,2.30
2022-08-23T10:47:39.620Z,2.10
2022-08-23T10:50:28.151Z,2.17
2022-08-23T10:53:05.170Z,1.95
2022-08-23T10:56:10.225Z,2.28
2022-08-23T10:59:14.503Z,2.15
2022-08-23T11:01:55.300Z,2.10
2022-08-23T11:04:31.215Z,2.33
2022-08-23T11:07:22.229Z,2.28
2022-08-23T11:10:16.703Z,2.20
2022-08-23T11:13:17.735Z,2.08
2022-08-23T11:15:58.493Z,2.13
2022-08-23T11:18:50.428Z,2.35
2022-08-23T11:21:28.583Z,2.15
2022-08-23T11:24:38.238Z,2.45
2022-08-23T11:27:25.343Z,2.45
2022-08-23T11:29:59.180Z,2.70
2022-08-23T11:32:43.399Z,1.90
2022-08-23T11:35:44.983Z,2.28
2022-08-23T11:38:13.983Z,2.47
2022-08-23T11:40:56.935Z,2.25
2022-08-23T11:43:34.749Z,2.30
2022-08-23T11:46:40.967Z,2.00
2022-08-23T11:49:14.323Z,2.03
2022-08-23T11:52:08.966Z,2.13
2022-08-23T11:55:28.457Z,2.90
2022-08-23T11:58:46.997Z,2.20
2022-08-23T12:01:17.294Z,2.15
2022-08-23T12:03:57.280Z,2.03
2022-08-23T12:06:52.992Z,1.92
2022-08-23T12:09:30.025Z,2.30
2022-08-23T12:11:57.514Z,1.98
2022-08-23T12:14:50.001Z,1.92
2022-08-23T12:17:25.937Z,2.08
2022-08-23T12:20:16.711Z,2.10
2022-08-23T12:23:00.417Z,2.20
2022-08-23T12:25:37.034Z,1.98
2022-08-23T12:28:08.031Z,2.00
2022-08-23T12:31:13.436Z,2.30
2022-08-23T12:33:53.759Z,2.38
2022-08-23T12:36:54.979Z,1.55
2022-08-23T12:39:39.702Z,2.28
2022-08-23T12:42:22.000Z,2.10
2022-08-23T12:45:01.470Z,2.10
2022-08-23T12:48:10.389Z,2.10
2022-08-23T12:51:00.595Z,2.13
2022-08-23T12:53:44.819Z,1.70
2022-08-23T12:56:22.855Z,2.08
2022-08-23T12:59:10.963Z,1.80
2022-08-23T13:01:40.146Z,2.38
2022-08-23T13:04:18.995Z,2.20
2022-08-23T13:06:57.546Z,2.10
2022-08-23T13:09:42.077Z,2.20
2022-08-23T13:12:16.040Z,2.35
2022-08-23T13:15:02.028Z,1.92
2022-08-23T13:17:36.797Z,2.42
2022-08-23T13:20:15.290Z,2.00
2022-08-23T13:22:58.403Z,2.05
2022-08-23T13:25:36.177Z,1.80
2022-08-23T13:28:26.183Z,2.05
2022-08-23T13:31:14.038Z,1.90
2022-08-23T13:33:41.848Z,2.05
2022-08-23T13:36:21.516Z,1.88
2022-08-23T13:38:49.723Z,2.10
2022-08-23T13:41:39.383Z,2.20
2022-08-23T13:44:11.446Z,2.17
2022-08-23T13:46:53.020Z,2.20
2022-08-23T13:49:35.136Z,2.05
2022-08-23T13:52:45.859Z,2.40
2022-08-23T13:55:06.676Z,2.05
2022-08-23T13:57:58.050Z,1.90
2022-08-23T14:00:32.239Z,2.10
2022-08-23T14:03:07.090Z,2.15
2022-08-23T14:05:34.994Z,2.13
2022-08-23T14:08:02.717Z,1.90
2022-08-23T14:10:37.000Z,1.98
2022-08-23T14:13:04.626Z,2.00
2022-08-23T14:15:56.767Z,2.20
2022-08-23T14:18:26.696Z,2.03
2022-08-23T14:21:01.016Z,2.25
2022-08-23T14:23:28.575Z,1.85
2022-08-23T14:25:58.422Z,2.30
2022-08-23T14:28:36.100Z,2.25
2022-08-23T14:31:04.504Z,2.17
2022-08-23T14:33:32.637Z,2.13
2022-08-23T14:36:07.138Z,2.08
2022-08-23T14:38:34.843Z,2.00
2022-08-23T14:41:07.114Z,2.13
2022-08-23T14:43:42.043Z,2.10
2022-08-23T14:46:09.652Z,2.40
2022-08-23T14:48:51.010Z,2.38
2022-08-23T14:51:32.426Z,2.08
2022-08-23T14:54:08.007Z,2.35
2022-08-23T14:56:35.672Z,2.03
2022-08-23T14:59:03.249Z,2.10
2022-08-23T15:01:38.005Z,2.30
2022-08-23T15:04:06.743Z,1.90
2022-08-23T15:06:35.042Z,2.42
2022-08-23T15:09:12.708Z,1.85
2022-08-23T15:14:33.983Z,2.10
2022-08-23T15:17:03.332Z,1.75
2022-08-23T15:19:31.216Z,2.00
2022-08-23T15:22:18.859Z,1.92
2022-08-23T15:24:49.515Z,1.90
2022-08-23T15:27:25.051Z,1.75
2022-08-23T15:29:52.615Z,2.10
2022-08-23T15:32:22.632Z,2.25
2022-08-23T15:34:57.011Z,1.90
2022-08-23T15:37:25.569Z,2.00
2022-08-23T15:39:53.277Z,2.20
2022-08-23T15:42:28.050Z,2.15
2022-08-23T15:44:55.892Z,1.88
2022-08-23T15:47:44.012Z,2.20
2022-08-23T15:50:18.219Z,1.88
2022-08-23T15:52:59.104Z,2.05
2022-08-23T15:55:31.630Z,2.22
2022-08-23T15:58:06.035Z,2.08
2022-08-23T16:00:33.881Z,2.67
2022-08-23T16:03:28.007Z,2.30
2022-08-23T16:05:58.028Z,2.22
2022-08-23T16:08:29.319Z,2.38
2022-08-23T16:10:57.306Z,2.03
2022-08-23T16:13:33.040Z,2.13
2022-08-23T16:16:00.540Z,2.20
2022-08-23T16:18:28.065Z,1.90
2022-08-23T16:21:02.055Z,1.98
2022-08-23T16:23:29.673Z,2.08
2022-08-23T16:26:01.046Z,2.03
2022-08-23T16:28:35.068Z,1.80
2022-08-23T16:31:02.769Z,1.95
2022-08-23T16:33:30.276Z,1.80
2022-08-23T16:36:04.059Z,2.08
2022-08-23T16:38:31.749Z,1.92
2022-08-23T16:40:59.240Z,1.90
2022-08-23T16:43:33.058Z,1.80
2022-08-23T16:46:00.688Z,1.90
2022-08-23T16:48:42.108Z,1.95
2022-08-23T16:51:16.917Z,2.20
2022-08-23T16:53:57.059Z,2.40
2022-08-23T16:56:32.370Z,2.00
2022-08-23T16:59:07.069Z,2.10
2022-08-23T17:01:56.767Z,2.28
2022-08-23T17:04:33.055Z,1.90
2022-08-23T17:07:00.836Z,1.85
2022-08-23T17:09:29.329Z,1.75
2022-08-23T17:12:05.059Z,2.58
2022-08-23T17:14:32.513Z,2.25
2022-08-23T17:17:00.316Z,2.13
2022-08-23T17:19:34.053Z,2.20
2022-08-23T17:22:01.573Z,2.30
2022-08-23T17:24:29.209Z,2.33
2022-08-23T17:27:03.089Z,1.90
2022-08-23T17:29:30.857Z,2.03
2022-08-23T17:32:12.176Z,2.00
2022-08-23T17:34:39.755Z,2.08
2022-08-23T17:37:24.101Z,2.40
2022-08-23T17:39:53.342Z,2.10
2022-08-23T17:42:21.487Z,2.20
2022-08-23T17:44:58.586Z,2.20
2022-08-23T17:47:26.137Z,2.00
2022-08-23T17:50:07.082Z,1.83
2022-08-23T17:52:34.746Z,1.90
2022-08-23T17:55:02.288Z,1.98
2022-08-23T17:57:37.234Z,2.05
2022-08-23T18:00:06.595Z,2.28
2022-08-23T18:02:34.303Z,3.38
2022-08-23T18:05:08.086Z,2.40
2022-08-23T18:07:35.617Z,2.30
2022-08-23T18:10:04.514Z,2.13
2022-08-23T18:12:38.119Z,1.85
2022-08-23T18:15:06.833Z,2.10
2022-08-23T18:17:35.412Z,2.05
2022-08-23T18:20:11.138Z,1.92
2022-08-23T18:22:40.009Z,2.03
2022-08-23T18:25:09.576Z,2.00
2022-08-23T18:28:02.178Z,2.20
2022-08-23T18:30:29.884Z,1.90
2022-08-23T18:32:57.694Z,1.98
2022-08-23T18:35:37.088Z,2.00
2022-08-23T18:38:05.398Z,2.30
2022-08-23T18:40:52.103Z,2.55
2022-08-23T18:43:24.403Z,2.15
2022-08-23T18:46:01.161Z,2.05
2022-08-23T18:48:29.576Z,2.17
2022-08-23T18:51:17.799Z,2.03
2022-08-23T18:53:46.008Z,2.10
2022-08-23T18:56:20.162Z,2.00
2022-08-23T18:58:48.134Z,2.47
2022-08-23T19:01:33.347Z,2.20
2022-08-23T19:04:03.399Z,2.05
2022-08-23T19:06:31.605Z,2.15
2022-08-23T19:09:07.173Z,2.08
2022-08-23T19:11:35.577Z,2.38
2022-08-23T19:14:04.112Z,2.05
2022-08-23T19:16:39.273Z,1.95
2022-08-23T19:19:07.621Z,2.10
2022-08-23T19:21:35.422Z,2.10
2022-08-23T19:24:10.142Z,2.08
2022-08-23T19:26:37.987Z,1.88
2022-08-23T19:29:08.772Z,1.92
2022-08-23T19:31:49.276Z,2.45
2022-08-23T19:34:20.889Z,2.10
2022-08-23T19:36:58.987Z,2.30
2022-08-23T19:39:36.223Z,2.40
2022-08-23T19:42:09.694Z,2.08
2022-08-23T19:44:46.189Z,1.92
2022-08-23T19:47:19.762Z,2.22
2022-08-23T19:50:02.206Z,2.30
2022-08-23T19:52:29.844Z,2.33
2022-08-23T19:55:05.248Z,2.20
2022-08-23T19:57:40.197Z,2.35
2022-08-23T20:00:17.066Z,2.60
2022-08-23T20:02:54.112Z,2.30
2022-08-23T20:05:22.570Z,2.20
2022-08-23T20:07:50.333Z,2.08
2022-08-23T20:10:24.179Z,2.20
2022-08-23T20:12:51.915Z,2.17
2022-08-23T20:15:20.045Z,2.00
2022-08-23T20:17:54.221Z,2.28
2022-08-23T20:20:22.100Z,2.20
2022-08-23T20:23:14.195Z,2.15
2022-08-23T20:25:42.826Z,2.50
2022-08-23T20:28:10.322Z,2.28
2022-08-23T20:30:45.192Z,2.20
2022-08-23T20:33:12.666Z,2.33
2022-08-23T20:35:40.181Z,2.08
2022-08-23T20:38:32.851Z,2.60
2022-08-23T20:41:01.266Z,2.08
2022-08-23T20:43:38.407Z,2.20
2022-08-23T20:46:07.482Z,2.20
2022-08-23T20:48:35.692Z,2.20
2022-08-23T20:51:12.266Z,2.15
2022-08-23T20:53:39.958Z,2.28
2022-08-23T20:56:07.965Z,2.17
2022-08-23T20:58:42.270Z,1.98
2022-08-23T21:01:11.394Z,2.10
2022-08-23T21:03:39.294Z,2.40
2022-08-23T21:06:15.143Z,2.15
2022-08-23T21:08:43.802Z,2.08
2022-08-23T21:11:11.377Z,2.45
2022-08-23T21:13:51.156Z,2.40
2022-08-23T21:16:19.158Z,2.50
2022-08-23T21:18:48.751Z,2.40
2022-08-23T21:21:24.176Z,1.98
2022-08-23T21:23:52.116Z,2.45
2022-08-23T21:26:23.615Z,2.00
2022-08-23T21:28:59.237Z,2.20
2022-08-23T21:31:27.749Z,2.30
2022-08-23T21:33:55.799Z,1.90
2022-08-23T21:36:30.281Z,2.22
2022-08-23T21:38:57.885Z,2.22
2022-08-23T21:41:47.343Z,2.40
2022-08-23T21:44:18.408Z,2.17
2022-08-23T21:46:46.662Z,2.20
2022-08-23T21:49:22.296Z,2.05
2022-08-23T21:51:56.501Z,2.90
2022-08-23T21:54:31.248Z,2.30
2022-08-23T21:56:58.875Z,2.22
2022-08-23T21:59:26.879Z,2.33
2022-08-23T22:02:01.306Z,2.17
2022-08-23T22:04:29.526Z,2.33
2022-08-23T22:06:57.244Z,2.10
2022-08-23T22:09:34.278Z,1.88
2022-08-23T22:12:01.755Z,2.35
2022-08-23T22:14:31.444Z,2.40
2022-08-23T22:17:06.275Z,2.08
2022-08-23T22:19:33.798Z,2.10
2022-08-23T22:22:01.195Z,2.72
2022-08-23T22:24:35.271Z,2.22
2022-08-23T22:27:02.681Z,2.20
2022-08-23T22:29:30.124Z,2.25
2022-08-23T22:32:04.290Z,2.35
2022-08-23T22:34:31.771Z,2.30
2022-08-23T22:36:59.118Z,2.38
2022-08-23T22:39:33.271Z,2.35
2022-08-23T22:42:09.913Z,2.20
2022-08-23T22:44:47.051Z,2.25
2022-08-23T22:47:15.260Z,2.10
2022-08-23T22:50:04.458Z,2.42
2022-08-23T22:52:38.660Z,2.30
2022-08-23T22:55:13.478Z,2.03
2022-08-23T22:57:40.889Z,2.05
2022-08-23T23:00:10.841Z,2.53
2022-08-23T23:02:45.516Z,2.28
2022-08-23T23:05:13.128Z,1.92
2022-08-23T23:08:05.511Z,2.55
2022-08-23T23:10:33.004Z,2.50
2022-08-23T23:13:00.514Z,2.38
2022-08-23T23:15:34.447Z,2.30
2022-08-23T23:18:02.015Z,2.10
2022-08-23T23:20:45.472Z,2.28
2022-08-23T23:23:17.329Z,2.28
2022-08-23T23:25:52.478Z,2.30
2022-08-23T23:28:21.230Z,2.35
2022-08-23T23:30:51.684Z,2.28
2022-08-23T23:33:27.514Z,2.20
2022-08-23T23:35:54.951Z,2.50
2022-08-23T23:38:22.441Z,2.50
2022-08-23T23:40:56.469Z,2.50
2022-08-23T23:43:23.914Z,2.40
2022-08-23T23:45:51.485Z,2.78
2022-08-23T23:48:25.490Z,2.70
2022-08-23T23:50:59.521Z,2.35
2022-08-23T23:53:33.479Z,2.38
2022-08-23T23:56:03.481Z,2.35
2022-08-23T23:58:31.498Z,2.53
